sensor_id;sensor_type;location;lat;lon;timestamp;P1;durP1;ratioP1;P2;durP2;ratioP2
10637;SDS011;47007;49.252;8.904;2022-09-30T00:01:18;2.30;;;2.10;;
10637;SDS011;47007;49.252;8.904;2022-09-30T00:03:46;3.47;;;3.17;;
10637;SDS011;47007;49.252;8.904;2022-09-30T00:06:15;3.00;;;2.72;;
10637;SDS011;47007;49.252;8.904;2022-09-30T00:08:42;3.40;;;2.42;;
10637;SDS011;47007;49.252;8.904;2022-09-30T00:11:13;2.28;;;2.13;;
10637;SDS011;47007;49.252;8.904;2022-09-30T00:13:45;3.38;;;2.42;;
10637;SDS011;47007;49.252;8.904;2022-09-30T00:16:13;3.28;;;2.40;;
10637;SDS011;47007;49.252;8.904;2022-09-30T00:18:41;3.20;;;2.08;;
10637;SDS011;47007;49.252;8.904;2022-09-30T00:21:09;2.03;;;1.83;;
10637;SDS011;47007;49.252;8.904;2022-09-30T00:23:37;4.55;;;2.30;;
10637;SDS011;47007;49.252;8.904;2022-09-30T00:26:07;2.55;;;2.30;;
10637;SDS011;47007;49.252;8.904;2022-09-30T00:28:38;3.42;;;2.58;;
10637;SDS011;47007;49.252;8.904;2022-09-30T00:31:06;5.25;;;2.72;;
10637;SDS011;47007;49.252;8.904;2022-09-30T00:33:36;2.33;;;2.20;;
10637;SDS011;47007;49.252;8.904;2022-09-30T00:36:03;5.20;;;2.40;;
10637;SDS011;47007;49.252;8.904;2022-09-30T00:38:30;2.80;;;1.98;;
10637;SDS011;47007;49.252;8.904;2022-09-30T00:40:57;2.30;;;2.10;;
10637;SDS011;47007;49.252;8.904;2022-09-30T00:43:38;2.25;;;2.10;;
10637;SDS011;47007;49.252;8.904;2022-09-30T00:46:20;1.77;;;1.67;;
10637;SDS011;47007;49.252;8.904;2022-09-30T00:48:55;5.07;;;2.28;;
10637;SDS011;47007;49.252;8.904;2022-09-30T00:51:26;2.17;;;1.95;;
10637;SDS011;47007;49.252;8.904;2022-09-30T00:53:59;3.15;;;2.35;;
10637;SDS011;47007;49.252;8.904;2022-09-30T00:56:36;2.83;;;2.13;;
10637;SDS011;47007;49.252;8.904;2022-09-30T00:59:09;2.08;;;1.88;;
10637;SDS011;47007;49.252;8.904;2022-09-30T01:01:41;2.15;;;1.90;;
10637;SDS011;47007;49.252;8.904;2022-09-30T01:04:13;1.85;;;1.75;;
10637;SDS011;47007;49.252;8.904;2022-09-30T01:06:41;3.88;;;2.30;;
10637;SDS011;47007;49.252;8.904;2022-09-30T01:09:09;2.97;;;2.55;;
10637;SDS011;47007;49.252;8.904;2022-09-30T01:11:36;2.33;;;2.00;;
10637;SDS011;47007;49.252;8.904;2022-09-30T01:14:10;2.75;;;2.05;;
10637;SDS011;47007;49.252;8.904;2022-09-30T01:25:06;3.53;;;2.17;;
10637;SDS011;47007;49.252;8.904;2022-09-30T01:27:57;1.95;;;1.85;;
10637;SDS011;47007;49.252;8.904;2022-09-30T01:44:58;2.10;;;1.90;;
10637;SDS011;47007;49.252;8.904;2022-09-30T01:47:38;3.42;;;2.50;;
10637;SDS011;47007;49.252;8.904;2022-09-30T01:53:13;2.33;;;2.10;;
10637;SDS011;47007;49.252;8.904;2022-09-30T01:55:47;2.78;;;2.33;;
10637;SDS011;47007;49.252;8.904;2022-09-30T01:58:23;3.13;;;2.08;;
10637;SDS011;47007;49.252;8.904;2022-09-30T02:00:59;2.88;;;2.00;;
10637;SDS011;47007;49.252;8.904;2022-09-30T02:03:32;3.25;;;2.25;;
10637;SDS011;47007;49.252;8.904;2022-09-30T02:06:04;2.03;;;1.83;;
10637;SDS011;47007;49.252;8.904;2022-09-30T02:11:14;1.90;;;1.70;;
10637;SDS011;47007;49.252;8.904;2022-09-30T02:13:50;3.65;;;2.13;;
10637;SDS011;47007;49.252;8.904;2022-09-30T02:16:31;3.17;;;2.20;;
10637;SDS011;47007;49.252;8.904;2022-09-30T02:19:08;2.17;;;1.73;;
10637;SDS011;47007;49.252;8.904;2022-09-30T02:21:44;2.58;;;2.03;;
10637;SDS011;47007;49.252;8.904;2022-09-30T02:24:20;2.22;;;1.90;;
10637;SDS011;47007;49.252;8.904;2022-09-30T02:26:50;2.60;;;2.33;;
10637;SDS011;47007;49.252;8.904;2022-09-30T02:29:23;3.50;;;1.80;;
10637;SDS011;47007;49.252;8.904;2022-09-30T02:31:55;2.83;;;2.30;;
10637;SDS011;47007;49.252;8.904;2022-09-30T02:37:06;3.05;;;2.47;;
10637;SDS011;47007;49.252;8.904;2022-09-30T02:42:25;5.38;;;2.63;;
10637;SDS011;47007;49.252;8.904;2022-09-30T02:44:55;3.75;;;3.03;;
10637;SDS011;47007;49.252;8.904;2022-09-30T02:50:11;3.75;;;3.00;;
10637;SDS011;47007;49.252;8.904;2022-09-30T02:55:19;6.18;;;2.95;;
10637;SDS011;47007;49.252;8.904;2022-09-30T03:00:52;3.17;;;2.53;;
10637;SDS011;47007;49.252;8.904;2022-09-30T03:06:05;3.00;;;2.75;;
10637;SDS011;47007;49.252;8.904;2022-09-30T03:08:32;3.20;;;2.40;;
10637;SDS011;47007;49.252;8.904;2022-09-30T03:10:59;2.83;;;2.63;;
10637;SDS011;47007;49.252;8.904;2022-09-30T03:26:56;3.67;;;2.40;;
10637;SDS011;47007;49.252;8.904;2022-09-30T03:29:45;2.80;;;2.53;;
10637;SDS011;47007;49.252;8.904;2022-09-30T03:32:24;3.40;;;2.90;;
10637;SDS011;47007;49.252;8.904;2022-09-30T03:37:53;2.45;;;2.20;;
10637;SDS011;47007;49.252;8.904;2022-09-30T03:41:06;4.18;;;3.45;;
10637;SDS011;47007;49.252;8.904;2022-09-30T03:43:45;4.10;;;3.55;;
10637;SDS011;47007;49.252;8.904;2022-09-30T03:46:21;4.40;;;3.90;;
10637;SDS011;47007;49.252;8.904;2022-09-30T03:48:49;3.30;;;3.00;;
10637;SDS011;47007;49.252;8.904;2022-09-30T03:51:19;2.75;;;2.55;;
10637;SDS011;47007;49.252;8.904;2022-09-30T03:53:50;3.88;;;2.75;;
10637;SDS011;47007;49.252;8.904;2022-09-30T03:56:27;4.65;;;2.72;;
10637;SDS011;47007;49.252;8.904;2022-09-30T03:58:55;2.80;;;2.60;;
10637;SDS011;47007;49.252;8.904;2022-09-30T04:01:22;3.67;;;3.38;;
10637;SDS011;47007;49.252;8.904;2022-09-30T04:03:50;3.90;;;3.20;;
10637;SDS011;47007;49.252;8.904;2022-09-30T04:06:19;5.30;;;2.85;;
10637;SDS011;47007;49.252;8.904;2022-09-30T04:08:48;3.53;;;2.72;;
10637;SDS011;47007;49.252;8.904;2022-09-30T04:11:15;2.65;;;2.30;;
10637;SDS011;47007;49.252;8.904;2022-09-30T04:13:43;3.35;;;2.47;;
10637;SDS011;47007;49.252;8.904;2022-09-30T04:16:09;3.63;;;2.90;;
10637;SDS011;47007;49.252;8.904;2022-09-30T04:18:36;3.10;;;2.25;;
10637;SDS011;47007;49.252;8.904;2022-09-30T04:21:05;3.17;;;2.88;;
10637;SDS011;47007;49.252;8.904;2022-09-30T04:23:37;2.80;;;2.50;;
10637;SDS011;47007;49.252;8.904;2022-09-30T04:26:05;3.08;;;2.55;;
10637;SDS011;47007;49.252;8.904;2022-09-30T04:28:36;3.03;;;2.63;;
10637;SDS011;47007;49.252;8.904;2022-09-30T04:31:03;4.30;;;2.33;;
10637;SDS011;47007;49.252;8.904;2022-09-30T04:33:31;2.47;;;1.85;;
10637;SDS011;47007;49.252;8.904;2022-09-30T04:35:58;2.40;;;2.05;;
10637;SDS011;47007;49.252;8.904;2022-09-30T04:38:25;3.63;;;2.40;;
10637;SDS011;47007;49.252;8.904;2022-09-30T04:40:53;2.28;;;2.08;;
10637;SDS011;47007;49.252;8.904;2022-09-30T04:43:20;4.10;;;2.20;;
10637;SDS011;47007;49.252;8.904;2022-09-30T04:45:50;2.25;;;2.05;;
10637;SDS011;47007;49.252;8.904;2022-09-30T04:48:20;2.55;;;2.28;;
10637;SDS011;47007;49.252;8.904;2022-09-30T04:50:50;3.47;;;2.33;;
10637;SDS011;47007;49.252;8.904;2022-09-30T04:53:17;4.63;;;3.22;;
10637;SDS011;47007;49.252;8.904;2022-09-30T04:55:44;2.58;;;2.38;;
10637;SDS011;47007;49.252;8.904;2022-09-30T04:58:11;2.50;;;2.30;;
10637;SDS011;47007;49.252;8.904;2022-09-30T05:00:38;3.55;;;2.72;;
10637;SDS011;47007;49.252;8.904;2022-09-30T05:03:05;4.32;;;3.25;;
10637;SDS011;47007;49.252;8.904;2022-09-30T05:05:32;3.28;;;2.95;;
10637;SDS011;47007;49.252;8.904;2022-09-30T05:08:02;3.15;;;2.80;;
10637;SDS011;47007;49.252;8.904;2022-09-30T05:10:29;2.67;;;2.47;;
10637;SDS011;47007;49.252;8.904;2022-09-30T05:12:56;3.72;;;3.40;;
10637;SDS011;47007;49.252;8.904;2022-09-30T05:15:23;10.25;;;6.22;;
10637;SDS011;47007;49.252;8.904;2022-09-30T05:17:51;4.00;;;3.65;;
10637;SDS011;47007;49.252;8.904;2022-09-30T05:20:18;3.28;;;2.75;;
10637;SDS011;47007;49.252;8.904;2022-09-30T05:22:47;2.92;;;2.67;;
10637;SDS011;47007;49.252;8.904;2022-09-30T05:25:18;4.68;;;3.20;;
10637;SDS011;47007;49.252;8.904;2022-09-30T05:27:47;3.72;;;3.42;;
10637;SDS011;47007;49.252;8.904;2022-09-30T05:30:15;5.20;;;4.57;;
10637;SDS011;47007;49.252;8.904;2022-09-30T05:32:42;5.78;;;5.18;;
10637;SDS011;47007;49.252;8.904;2022-09-30T05:35:08;6.15;;;5.50;;
10637;SDS011;47007;49.252;8.904;2022-09-30T05:37:37;5.18;;;4.78;;
10637;SDS011;47007;49.252;8.904;2022-09-30T05:40:04;23.65;;;21.23;;
10637;SDS011;47007;49.252;8.904;2022-09-30T05:42:32;6.75;;;6.05;;
10637;SDS011;47007;49.252;8.904;2022-09-30T05:45:05;4.50;;;4.10;;
10637;SDS011;47007;49.252;8.904;2022-09-30T05:47:32;3.33;;;3.03;;
10637;SDS011;47007;49.252;8.904;2022-09-30T05:49:59;4.07;;;3.20;;
10637;SDS011;47007;49.252;8.904;2022-09-30T05:52:26;4.85;;;3.40;;
10637;SDS011;47007;49.252;8.904;2022-09-30T05:54:53;3.13;;;2.92;;
10637;SDS011;47007;49.252;8.904;2022-09-30T05:57:21;6.20;;;3.95;;
10637;SDS011;47007;49.252;8.904;2022-09-30T05:59:48;5.40;;;4.90;;
10637;SDS011;47007;49.252;8.904;2022-09-30T06:02:15;7.88;;;6.03;;
10637;SDS011;47007;49.252;8.904;2022-09-30T06:04:42;9.13;;;6.13;;
10637;SDS011;47007;49.252;8.904;2022-09-30T06:07:08;7.53;;;6.03;;
10637;SDS011;47007;49.252;8.904;2022-09-30T06:09:36;6.28;;;5.07;;
10637;SDS011;47007;49.252;8.904;2022-09-30T06:12:02;6.43;;;5.25;;
10637;SDS011;47007;49.252;8.904;2022-09-30T06:14:31;9.55;;;6.43;;
10637;SDS011;47007;49.252;8.904;2022-09-30T06:16:58;8.55;;;7.28;;
10637;SDS011;47007;49.252;8.904;2022-09-30T06:19:28;8.93;;;6.80;;
10637;SDS011;47007;49.252;8.904;2022-09-30T06:21:56;8.50;;;7.13;;
10637;SDS011;47007;49.252;8.904;2022-09-30T06:24:23;8.00;;;7.18;;
10637;SDS011;47007;49.252;8.904;2022-09-30T06:26:50;7.50;;;6.70;;
10637;SDS011;47007;49.252;8.904;2022-09-30T06:29:17;11.38;;;8.02;;
10637;SDS011;47007;49.252;8.904;2022-09-30T06:31:44;7.53;;;6.43;;
10637;SDS011;47007;49.252;8.904;2022-09-30T06:34:11;7.10;;;6.50;;
10637;SDS011;47007;49.252;8.904;2022-09-30T06:36:38;6.68;;;6.07;;
10637;SDS011;47007;49.252;8.904;2022-09-30T06:39:04;6.47;;;5.88;;
10637;SDS011;47007;49.252;8.904;2022-09-30T06:41:38;7.00;;;6.30;;
10637;SDS011;47007;49.252;8.904;2022-09-30T06:44:07;7.20;;;6.50;;
10637;SDS011;47007;49.252;8.904;2022-09-30T06:46:35;7.13;;;6.43;;
10637;SDS011;47007;49.252;8.904;2022-09-30T06:49:13;7.50;;;6.68;;
10637;SDS011;47007;49.252;8.904;2022-09-30T06:51:40;7.45;;;6.63;;
10637;SDS011;47007;49.252;8.904;2022-09-30T06:54:07;7.57;;;5.97;;
10637;SDS011;47007;49.252;8.904;2022-09-30T06:56:35;7.95;;;7.15;;
10637;SDS011;47007;49.252;8.904;2022-09-30T06:59:02;6.82;;;6.13;;
10637;SDS011;47007;49.252;8.904;2022-09-30T07:01:29;6.45;;;5.88;;
10637;SDS011;47007;49.252;8.904;2022-09-30T07:03:56;8.93;;;6.38;;
10637;SDS011;47007;49.252;8.904;2022-09-30T07:06:28;6.97;;;6.22;;
10637;SDS011;47007;49.252;8.904;2022-09-30T07:08:56;8.48;;;6.82;;
10637;SDS011;47007;49.252;8.904;2022-09-30T07:11:23;7.53;;;6.82;;
10637;SDS011;47007;49.252;8.904;2022-09-30T07:13:50;6.53;;;5.93;;
10637;SDS011;47007;49.252;8.904;2022-09-30T07:16:17;8.10;;;7.07;;
10637;SDS011;47007;49.252;8.904;2022-09-30T07:18:45;7.45;;;6.70;;
10637;SDS011;47007;49.252;8.904;2022-09-30T07:21:13;8.88;;;7.82;;
10637;SDS011;47007;49.252;8.904;2022-09-30T07:23:44;8.80;;;6.95;;
10637;SDS011;47007;49.252;8.904;2022-09-30T07:26:17;7.65;;;6.95;;
10637;SDS011;47007;49.252;8.904;2022-09-30T07:28:46;8.20;;;7.38;;
10637;SDS011;47007;49.252;8.904;2022-09-30T07:31:14;8.38;;;6.82;;
10637;SDS011;47007;49.252;8.904;2022-09-30T07:33:58;7.63;;;6.93;;
10637;SDS011;47007;49.252;8.904;2022-09-30T07:36:25;7.47;;;6.72;;
10637;SDS011;47007;49.252;8.904;2022-09-30T07:38:58;7.38;;;6.57;;
10637;SDS011;47007;49.252;8.904;2022-09-30T07:41:32;8.07;;;6.28;;
10637;SDS011;47007;49.252;8.904;2022-09-30T07:44:02;7.65;;;6.90;;
10637;SDS011;47007;49.252;8.904;2022-09-30T07:46:32;9.90;;;8.88;;
10637;SDS011;47007;49.252;8.904;2022-09-30T07:49:00;7.25;;;6.40;;
10637;SDS011;47007;49.252;8.904;2022-09-30T07:51:34;7.43;;;6.70;;
10637;SDS011;47007;49.252;8.904;2022-09-30T07:54:04;7.05;;;6.45;;
10637;SDS011;47007;49.252;8.904;2022-09-30T07:56:34;9.60;;;8.25;;
10637;SDS011;47007;49.252;8.904;2022-09-30T07:59:24;7.55;;;6.80;;
10637;SDS011;47007;49.252;8.904;2022-09-30T08:01:52;7.00;;;6.32;;
10637;SDS011;47007;49.252;8.904;2022-09-30T08:04:19;6.80;;;6.20;;
10637;SDS011;47007;49.252;8.904;2022-09-30T08:06:47;7.80;;;7.05;;
10637;SDS011;47007;49.252;8.904;2022-09-30T08:09:17;7.03;;;6.32;;
10637;SDS011;47007;49.252;8.904;2022-09-30T08:11:45;6.35;;;5.75;;
10637;SDS011;47007;49.252;8.904;2022-09-30T08:14:23;8.68;;;6.55;;
10637;SDS011;47007;49.252;8.904;2022-09-30T08:16:51;6.45;;;5.85;;
10637;SDS011;47007;49.252;8.904;2022-09-30T08:19:19;6.93;;;6.20;;
10637;SDS011;47007;49.252;8.904;2022-09-30T08:21:47;6.43;;;5.93;;
10637;SDS011;47007;49.252;8.904;2022-09-30T08:24:15;7.25;;;6.55;;
10637;SDS011;47007;49.252;8.904;2022-09-30T08:26:42;7.43;;;6.72;;
10637;SDS011;47007;49.252;8.904;2022-09-30T08:29:09;6.88;;;6.28;;
10637;SDS011;47007;49.252;8.904;2022-09-30T08:31:46;7.32;;;6.63;;
10637;SDS011;47007;49.252;8.904;2022-09-30T08:34:13;6.88;;;6.28;;
10637;SDS011;47007;49.252;8.904;2022-09-30T08:36:40;8.48;;;6.70;;
10637;SDS011;47007;49.252;8.904;2022-09-30T08:39:07;6.78;;;6.28;;
10637;SDS011;47007;49.252;8.904;2022-09-30T08:44:13;7.43;;;6.82;;
10637;SDS011;47007;49.252;8.904;2022-09-30T08:46:59;7.20;;;6.60;;
10637;SDS011;47007;49.252;8.904;2022-09-30T08:49:43;8.73;;;7.65;;
10637;SDS011;47007;49.252;8.904;2022-09-30T08:52:19;8.10;;;7.40;;
10637;SDS011;47007;49.252;8.904;2022-09-30T08:55:14;8.18;;;7.38;;
10637;SDS011;47007;49.252;8.904;2022-09-30T08:57:46;8.48;;;7.60;;
10637;SDS011;47007;49.252;8.904;2022-09-30T09:00:15;7.47;;;6.75;;
10637;SDS011;47007;49.252;8.904;2022-09-30T09:02:45;6.97;;;6.47;;
10637;SDS011;47007;49.252;8.904;2022-09-30T09:05:19;7.65;;;6.95;;
10637;SDS011;47007;49.252;8.904;2022-09-30T09:24:37;7.57;;;6.88;;
10637;SDS011;47007;49.252;8.904;2022-09-30T09:27:13;8.88;;;6.95;;
10637;SDS011;47007;49.252;8.904;2022-09-30T09:30:08;8.63;;;7.22;;
10637;SDS011;47007;49.252;8.904;2022-09-30T09:32:37;8.32;;;7.63;;
10637;SDS011;47007;49.252;8.904;2022-09-30T09:35:15;9.13;;;8.23;;
10637;SDS011;47007;49.252;8.904;2022-09-30T09:37:54;8.75;;;7.93;;
10637;SDS011;47007;49.252;8.904;2022-09-30T09:41:01;8.75;;;7.30;;
10637;SDS011;47007;49.252;8.904;2022-09-30T09:46:38;8.90;;;6.60;;
10637;SDS011;47007;49.252;8.904;2022-09-30T09:51:40;7.90;;;7.20;;
10637;SDS011;47007;49.252;8.904;2022-09-30T09:54:12;7.32;;;6.63;;
10637;SDS011;47007;49.252;8.904;2022-09-30T09:56:44;6.80;;;6.20;;
10637;SDS011;47007;49.252;8.904;2022-09-30T10:01:43;6.05;;;5.55;;
10637;SDS011;47007;49.252;8.904;2022-09-30T10:04:17;6.50;;;5.95;;
10637;SDS011;47007;49.252;8.904;2022-09-30T10:07:00;7.10;;;5.40;;
10637;SDS011;47007;49.252;8.904;2022-09-30T10:09:38;6.05;;;5.55;;
10637;SDS011;47007;49.252;8.904;2022-09-30T10:17:03;5.40;;;4.90;;
10637;SDS011;47007;49.252;8.904;2022-09-30T10:19:31;5.95;;;5.18;;
10637;SDS011;47007;49.252;8.904;2022-09-30T10:24:37;6.68;;;6.07;;
10637;SDS011;47007;49.252;8.904;2022-09-30T10:27:26;8.32;;;5.85;;
10637;SDS011;47007;49.252;8.904;2022-09-30T10:29:54;7.68;;;6.28;;
10637;SDS011;47007;49.252;8.904;2022-09-30T10:32:20;6.93;;;6.00;;
10637;SDS011;47007;49.252;8.904;2022-09-30T10:37:49;7.30;;;6.60;;
10637;SDS011;47007;49.252;8.904;2022-09-30T10:40:17;6.97;;;5.88;;
10637;SDS011;47007;49.252;8.904;2022-09-30T10:42:47;7.05;;;6.45;;
10637;SDS011;47007;49.252;8.904;2022-09-30T10:45:31;6.60;;;5.93;;
10637;SDS011;47007;49.252;8.904;2022-09-30T10:48:04;6.22;;;5.70;;
10637;SDS011;47007;49.252;8.904;2022-09-30T10:50:33;6.47;;;5.72;;
10637;SDS011;47007;49.252;8.904;2022-09-30T10:53:01;6.10;;;5.60;;
10637;SDS011;47007;49.252;8.904;2022-09-30T10:55:31;6.30;;;5.47;;
10637;SDS011;47007;49.252;8.904;2022-09-30T11:06:42;6.72;;;5.25;;
10637;SDS011;47007;49.252;8.904;2022-09-30T11:12:10;3.78;;;3.50;;
10637;SDS011;47007;49.252;8.904;2022-09-30T11:14:48;3.42;;;3.10;;
10637;SDS011;47007;49.252;8.904;2022-09-30T11:20:09;4.18;;;3.83;;
10637;SDS011;47007;49.252;8.904;2022-09-30T11:22:53;3.45;;;3.15;;
10637;SDS011;47007;49.252;8.904;2022-09-30T11:25:42;3.72;;;3.42;;
10637;SDS011;47007;49.252;8.904;2022-09-30T11:42:14;7.35;;;3.72;;
10637;SDS011;47007;49.252;8.904;2022-09-30T11:44:45;3.45;;;3.15;;
10637;SDS011;47007;49.252;8.904;2022-09-30T11:53:02;3.13;;;2.80;;
10637;SDS011;47007;49.252;8.904;2022-09-30T11:58:38;2.67;;;2.47;;
10637;SDS011;47007;49.252;8.904;2022-09-30T12:01:11;3.40;;;2.33;;
10637;SDS011;47007;49.252;8.904;2022-09-30T12:03:50;3.55;;;2.50;;
10637;SDS011;47007;49.252;8.904;2022-09-30T12:06:29;2.75;;;2.50;;
10637;SDS011;47007;49.252;8.904;2022-09-30T12:09:05;2.80;;;2.40;;
10637;SDS011;47007;49.252;8.904;2022-09-30T12:11:46;1.98;;;1.85;;
10637;SDS011;47007;49.252;8.904;2022-09-30T12:14:35;3.47;;;1.90;;
10637;SDS011;47007;49.252;8.904;2022-09-30T12:17:05;5.25;;;2.13;;
10637;SDS011;47007;49.252;8.904;2022-09-30T12:19:42;3.33;;;2.00;;
10637;SDS011;47007;49.252;8.904;2022-09-30T12:22:20;2.30;;;2.10;;
10637;SDS011;47007;49.252;8.904;2022-09-30T12:24:56;2.70;;;1.63;;
10637;SDS011;47007;49.252;8.904;2022-09-30T12:27:24;2.60;;;1.90;;
10637;SDS011;47007;49.252;8.904;2022-09-30T12:30:03;5.35;;;2.03;;
10637;SDS011;47007;49.252;8.904;2022-09-30T12:38:50;1.65;;;1.20;;
10637;SDS011;47007;49.252;8.904;2022-09-30T12:47:28;4.20;;;1.40;;
10637;SDS011;47007;49.252;8.904;2022-09-30T12:50:21;2.40;;;1.98;;
10637;SDS011;47007;49.252;8.904;2022-09-30T12:52:53;3.40;;;2.15;;
10637;SDS011;47007;49.252;8.904;2022-09-30T12:55:38;3.83;;;2.17;;
10637;SDS011;47007;49.252;8.904;2022-09-30T12:58:15;2.30;;;2.10;;
10637;SDS011;47007;49.252;8.904;2022-09-30T13:11:42;2.45;;;2.00;;
10637;SDS011;47007;49.252;8.904;2022-09-30T13:30:32;3.05;;;1.48;;
10637;SDS011;47007;49.252;8.904;2022-09-30T13:32:47;2.67;;;1.50;;
10637;SDS011;47007;49.252;8.904;2022-09-30T13:38:18;2.58;;;1.60;;
10637;SDS011;47007;49.252;8.904;2022-09-30T13:40:56;2.42;;;1.33;;
10637;SDS011;47007;49.252;8.904;2022-09-30T13:43:37;2.13;;;1.25;;
10637;SDS011;47007;49.252;8.904;2022-09-30T13:46:33;1.63;;;1.20;;
10637;SDS011;47007;49.252;8.904;2022-09-30T13:51:46;4.00;;;1.33;;
10637;SDS011;47007;49.252;8.904;2022-09-30T13:56:59;0.90;;;0.90;;
10637;SDS011;47007;49.252;8.904;2022-09-30T14:07:42;1.55;;;0.70;;
10637;SDS011;47007;49.252;8.904;2022-09-30T14:12:58;0.95;;;0.93;;
10637;SDS011;47007;49.252;8.904;2022-09-30T14:24:00;1.27;;;1.17;;
10637;SDS011;47007;49.252;8.904;2022-09-30T14:26:38;2.67;;;1.40;;
10637;SDS011;47007;49.252;8.904;2022-09-30T14:31:48;3.10;;;1.58;;
10637;SDS011;47007;49.252;8.904;2022-09-30T14:34:15;3.40;;;2.17;;
10637;SDS011;47007;49.252;8.904;2022-09-30T14:36:46;2.40;;;1.30;;
10637;SDS011;47007;49.252;8.904;2022-09-30T14:39:17;1.50;;;1.40;;
10637;SDS011;47007;49.252;8.904;2022-09-30T14:41:55;2.65;;;2.40;;
10637;SDS011;47007;49.252;8.904;2022-09-30T14:44:25;1.60;;;1.50;;
10637;SDS011;47007;49.252;8.904;2022-09-30T14:46:53;2.00;;;1.48;;
10637;SDS011;47007;49.252;8.904;2022-09-30T14:49:27;2.03;;;1.52;;
10637;SDS011;47007;49.252;8.904;2022-09-30T14:52:00;2.45;;;1.40;;
10637;SDS011;47007;49.252;8.904;2022-09-30T14:54:31;2.60;;;1.50;;
10637;SDS011;47007;49.252;8.904;2022-09-30T14:56:59;1.30;;;1.20;;
10637;SDS011;47007;49.252;8.904;2022-09-30T14:59:29;1.25;;;1.15;;
10637;SDS011;47007;49.252;8.904;2022-09-30T15:02:09;2.35;;;2.15;;
10637;SDS011;47007;49.252;8.904;2022-09-30T15:04:43;2.58;;;1.50;;
10637;SDS011;47007;49.252;8.904;2022-09-30T15:07:14;1.73;;;1.63;;
10637;SDS011;47007;49.252;8.904;2022-09-30T15:09:44;2.65;;;1.30;;
10637;SDS011;47007;49.252;8.904;2022-09-30T15:12:13;1.75;;;1.33;;
10637;SDS011;47007;49.252;8.904;2022-09-30T15:14:49;1.75;;;1.13;;
10637;SDS011;47007;49.252;8.904;2022-09-30T15:17:26;1.33;;;1.15;;
10637;SDS011;47007;49.252;8.904;2022-09-30T15:20:12;1.63;;;1.52;;
10637;SDS011;47007;49.252;8.904;2022-09-30T15:22:51;1.52;;;1.20;;
10637;SDS011;47007;49.252;8.904;2022-09-30T15:25:19;1.20;;;0.88;;
10637;SDS011;47007;49.252;8.904;2022-09-30T15:27:47;2.17;;;1.45;;
10637;SDS011;47007;49.252;8.904;2022-09-30T15:32:43;1.38;;;1.05;;
10637;SDS011;47007;49.252;8.904;2022-09-30T15:35:13;3.75;;;2.70;;
10637;SDS011;47007;49.252;8.904;2022-09-30T15:37:42;2.08;;;1.30;;
10637;SDS011;47007;49.252;8.904;2022-09-30T15:40:12;2.75;;;1.25;;
10637;SDS011;47007;49.252;8.904;2022-09-30T15:43:02;2.90;;;1.42;;
10637;SDS011;47007;49.252;8.904;2022-09-30T15:45:32;2.08;;;1.88;;
10637;SDS011;47007;49.252;8.904;2022-09-30T15:50:43;2.38;;;1.60;;
10637;SDS011;47007;49.252;8.904;2022-09-30T15:53:17;1.58;;;1.10;;
10637;SDS011;47007;49.252;8.904;2022-09-30T16:06:18;1.75;;;1.15;;
10637;SDS011;47007;49.252;8.904;2022-09-30T16:08:52;1.17;;;0.73;;
10637;SDS011;47007;49.252;8.904;2022-09-30T16:11:27;2.03;;;0.82;;
10637;SDS011;47007;49.252;8.904;2022-09-30T16:13:57;2.15;;;1.20;;
10637;SDS011;47007;49.252;8.904;2022-09-30T16:16:25;1.52;;;1.42;;
10637;SDS011;47007;49.252;8.904;2022-09-30T16:18:56;1.88;;;1.70;;
10637;SDS011;47007;49.252;8.904;2022-09-30T16:26:56;2.35;;;2.15;;
10637;SDS011;47007;49.252;8.904;2022-09-30T16:29:25;2.08;;;1.88;;
10637;SDS011;47007;49.252;8.904;2022-09-30T16:31:53;2.85;;;1.90;;
10637;SDS011;47007;49.252;8.904;2022-09-30T16:34:28;4.68;;;2.60;;
10637;SDS011;47007;49.252;8.904;2022-09-30T16:37:03;4.95;;;3.00;;
10637;SDS011;47007;49.252;8.904;2022-09-30T16:39:36;7.00;;;2.28;;
10637;SDS011;47007;49.252;8.904;2022-09-30T16:42:03;3.33;;;2.40;;
10637;SDS011;47007;49.252;8.904;2022-09-30T16:44:29;5.40;;;2.58;;
10637;SDS011;47007;49.252;8.904;2022-09-30T16:47:02;2.65;;;2.40;;
10637;SDS011;47007;49.252;8.904;2022-09-30T16:49:29;3.30;;;2.58;;
10637;SDS011;47007;49.252;8.904;2022-09-30T16:51:55;2.55;;;2.35;;
10637;SDS011;47007;49.252;8.904;2022-09-30T16:54:22;2.70;;;2.47;;
10637;SDS011;47007;49.252;8.904;2022-09-30T16:56:49;2.83;;;2.53;;
10637;SDS011;47007;49.252;8.904;2022-09-30T16:59:16;3.67;;;2.78;;
10637;SDS011;47007;49.252;8.904;2022-09-30T17:01:43;3.45;;;2.30;;
10637;SDS011;47007;49.252;8.904;2022-09-30T17:04:10;3.03;;;2.33;;
10637;SDS011;47007;49.252;8.904;2022-09-30T17:06:42;4.00;;;2.90;;
10637;SDS011;47007;49.252;8.904;2022-09-30T17:09:09;2.70;;;2.50;;
10637;SDS011;47007;49.252;8.904;2022-09-30T17:11:36;3.15;;;2.85;;
10637;SDS011;47007;49.252;8.904;2022-09-30T17:14:03;3.95;;;2.50;;
10637;SDS011;47007;49.252;8.904;2022-09-30T17:16:30;6.05;;;4.72;;
10637;SDS011;47007;49.252;8.904;2022-09-30T17:18:58;4.72;;;4.25;;
10637;SDS011;47007;49.252;8.904;2022-09-30T17:21:25;4.40;;;4.00;;
10637;SDS011;47007;49.252;8.904;2022-09-30T17:23:53;6.07;;;5.20;;
10637;SDS011;47007;49.252;8.904;2022-09-30T17:26:20;5.55;;;3.63;;
10637;SDS011;47007;49.252;8.904;2022-09-30T17:28:46;11.57;;;7.20;;
10637;SDS011;47007;49.252;8.904;2022-09-30T17:31:13;15.80;;;11.90;;
10637;SDS011;47007;49.252;8.904;2022-09-30T17:33:40;21.33;;;13.63;;
10637;SDS011;47007;49.252;8.904;2022-09-30T17:36:09;16.20;;;11.70;;
10637;SDS011;47007;49.252;8.904;2022-09-30T17:38:38;13.77;;;12.32;;
10637;SDS011;47007;49.252;8.904;2022-09-30T17:41:05;7.60;;;6.13;;
10637;SDS011;47007;49.252;8.904;2022-09-30T17:43:51;4.63;;;3.50;;
10637;SDS011;47007;49.252;8.904;2022-09-30T17:46:18;6.65;;;5.85;;
10637;SDS011;47007;49.252;8.904;2022-09-30T17:48:48;6.70;;;6.00;;
10637;SDS011;47007;49.252;8.904;2022-09-30T17:51:16;6.15;;;5.47;;
10637;SDS011;47007;49.252;8.904;2022-09-30T17:53:43;7.05;;;6.05;;
10637;SDS011;47007;49.252;8.904;2022-09-30T17:56:14;8.50;;;6.68;;
10637;SDS011;47007;49.252;8.904;2022-09-30T17:58:45;10.48;;;7.40;;
10637;SDS011;47007;49.252;8.904;2022-09-30T18:01:16;9.25;;;7.28;;
10637;SDS011;47007;49.252;8.904;2022-09-30T18:03:45;8.95;;;6.15;;
10637;SDS011;47007;49.252;8.904;2022-09-30T18:06:12;8.02;;;5.38;;
10637;SDS011;47007;49.252;8.904;2022-09-30T18:08:40;5.82;;;4.53;;
10637;SDS011;47007;49.252;8.904;2022-09-30T18:11:06;4.63;;;4.22;;
10637;SDS011;47007;49.252;8.904;2022-09-30T18:13:33;4.40;;;4.00;;
10637;SDS011;47007;49.252;8.904;2022-09-30T18:16:04;7.57;;;6.88;;
10637;SDS011;47007;49.252;8.904;2022-09-30T18:18:32;4.35;;;3.95;;
10637;SDS011;47007;49.252;8.904;2022-09-30T18:20:59;11.35;;;10.25;;
10637;SDS011;47007;49.252;8.904;2022-09-30T18:23:26;4.72;;;4.32;;
10637;SDS011;47007;49.252;8.904;2022-09-30T18:25:53;5.88;;;4.65;;
10637;SDS011;47007;49.252;8.904;2022-09-30T18:28:20;5.38;;;4.88;;
10637;SDS011;47007;49.252;8.904;2022-09-30T18:30:47;5.85;;;5.03;;
10637;SDS011;47007;49.252;8.904;2022-09-30T18:33:14;11.10;;;7.63;;
10637;SDS011;47007;49.252;8.904;2022-09-30T18:35:42;8.25;;;7.00;;
10637;SDS011;47007;49.252;8.904;2022-09-30T18:38:09;8.35;;;7.50;;
10637;SDS011;47007;49.252;8.904;2022-09-30T18:40:39;7.68;;;7.00;;
10637;SDS011;47007;49.252;8.904;2022-09-30T18:43:10;6.50;;;5.90;;
10637;SDS011;47007;49.252;8.904;2022-09-30T18:45:39;9.13;;;7.80;;
10637;SDS011;47007;49.252;8.904;2022-09-30T18:48:06;7.15;;;6.38;;
10637;SDS011;47007;49.252;8.904;2022-09-30T18:50:33;8.20;;;6.35;;
10637;SDS011;47007;49.252;8.904;2022-09-30T18:53:00;5.88;;;5.28;;
10637;SDS011;47007;49.252;8.904;2022-09-30T18:55:35;5.38;;;4.88;;
10637;SDS011;47007;49.252;8.904;2022-09-30T18:58:03;9.05;;;5.80;;
10637;SDS011;47007;49.252;8.904;2022-09-30T19:00:30;7.97;;;6.10;;